• Join FlightAware (Why Join?)
  • Login
  • US Flag 
07:35AM EST


 

Airport Tracker/Info


-or-


 

Live Flight TrackerFlight Track Log ✈ SWA3939 ✈ 27-Jul-2013 ✈ KMDW - KBWI

Flight Track Log - Related Links

Times and Time Zones

All times are in EDT time to prevent confusion due to time zone crossing. See the SWA3939 flight status page for this flight to view local times or setup timezone preferences in your user account.

Time Position Orientation Groundspeed Altitude Reporting Facility
EDT Latitude Longitude Course Direction KTS MPH feet Rate Location/Type
08:23AM 41.8167 -87.7667 90° East 176 203 2,900  Level Chicago TRACON
08:24AM 41.8167 -87.7000 90° East 216 249 4,100 2,040 Climbing Chicago TRACON
08:25AM 41.8167 -87.6167 90° East 272 313 6,700 3,240 Climbing Chicago TRACON
08:25AM 41.8064 -87.5661 105° East 271 312 9,000 4,260 Climbing Chicago Center
08:26AM 41.7953 -87.4514 97° East 304 350 13,300 3,180 Climbing Chicago Center
08:27AM 41.7864 -87.3267 95° East 327 376 15,600 2,580 Climbing Chicago Center
08:28AM 41.7750 -87.1897 96° East 355 409 18,700 3,240 Climbing Chicago Center
08:29AM 41.7614 -87.0431 97° East 386 444 22,300 3,240 Climbing Chicago Center
08:30AM 41.7644 -86.8847 88° East 418 481 25,400 2,760 Climbing Chicago Center
08:31AM 41.7658 -86.7239 89° East 430 495 28,000 2,640 Climbing Chicago Center
08:32AM 41.7667 -86.5175 90° East 457 526 30,800 2,340 Climbing Chicago Center
08:33AM 41.7669 -86.3408 90° East 469 540 32,900 1,020 Climbing Chicago Center
08:34AM 41.7581 -86.1658 94° East 472 543 33,000  Climbing Chicago Center
08:36AM 41.7481 -85.9919 94° East 468 539 33,000  Level Chicago Center
08:37AM 41.7372 -85.8183 95° East 467 537 33,000  Level Chicago Center
08:38AM 41.7267 -85.6456 95° East 465 535 33,100 1,020 Climbing Chicago Center
08:39AM 41.7156 -85.4725 95° East 461 531 35,100 1,740 Climbing Chicago Center
08:40AM 41.7014 -85.3017 96° East 463 533 36,700 1,500 Climbing Chicago Center
08:41AM 41.6906 -85.1056 94° East 492 566 38,200 1,320 Climbing Chicago Center
08:42AM 41.6772 -84.9275 96° East 484 557 39,500 1,260 Climbing Chicago Center
08:43AM 41.6642 -84.7453 95° East 491 565 40,800 720 Climbing Chicago Center
08:44AM 41.6594 -84.5636 92° East 485 558 41,000 60 Climbing Cleveland Center
08:45AM 41.6361 -84.3925 100° East 479 551 41,000  Level Cleveland Center
08:46AM 41.5614 -84.2147 119° Southeast 458 527 41,000  Level Chicago Center
08:47AM 41.4967 -84.0667 120° Southeast 460 529 41,000  Level Chicago Center
08:48AM 41.4331 -83.9183 120° Southeast 461 531 41,000  Level Chicago Center
08:49AM 41.3708 -83.7903 123° Southeast 464 534 41,000  Level Cleveland Center
08:50AM 41.3103 -83.6461 119° Southeast 459 528 41,000  Level Cleveland Center
08:51AM 41.2433 -83.4967 121° Southeast 459 528 41,000  Level Cleveland Center
08:52AM 41.1803 -83.3503 120° Southeast 464 534 41,000  Level Cleveland Center
08:53AM 41.1128 -83.2014 121° Southeast 464 534 41,000  Level Cleveland Center
08:54AM 41.0514 -83.0558 119° Southeast 458 527 41,000  Level Cleveland Center
08:55AM 40.9856 -82.9103 121° Southeast 458 527 41,000  Level Cleveland Center
08:56AM 40.9197 -82.7650 121° Southeast 463 533 41,000  Level Cleveland Center
08:57AM 40.8572 -82.6200 120° Southeast 464 534 41,000  Level Indianapolis Center
08:58AM 40.7917 -82.4758 121° Southeast 459 528 41,000  Level Indianapolis Center
08:59AM 40.7253 -82.3306 121° Southeast 461 531 41,000  Level Indianapolis Center
09:00AM 40.6597 -82.1867 121° Southeast 458 527 41,000  Level Indianapolis Center
09:01AM 40.5933 -82.0431 121° Southeast 457 526 41,000  Level Indianapolis Center
09:02AM 40.5156 -81.8758 121° Southeast 458 527 41,000  Level Indianapolis Center
09:03AM 40.4492 -81.7331 121° Southeast 458 527 41,000  Level Indianapolis Center
09:04AM 40.3847 -81.5897 121° Southeast 455 524 41,000  Level Indianapolis Center
09:05AM 40.3411 -81.4286 110° East 465 535 41,000  Level Indianapolis Center
09:06AM 40.2967 -81.2681 110° East 465 535 41,000  Level Indianapolis Center
09:07AM 40.2522 -81.1103 110° East 460 529 41,000  Level Indianapolis Center
09:08AM 40.2081 -80.9522 110° East 461 531 41,000 -120 Level Indianapolis Center
09:09AM 40.1631 -80.7978 111° Southeast 455 524 40,800 -540 Descending Indianapolis Center
09:10AM 40.1186 -80.6397 110° East 458 527 39,900 -960 Descending Indianapolis Center
09:11AM 40.0725 -80.4819 111° Southeast 462 532 38,900 -960 Descending Indianapolis Center
09:12AM 40.0294 -80.3308 110° East 449 517 38,000 -960 Descending Indianapolis Center
09:13AM 39.9853 -80.1797 111° Southeast 445 512 37,000 -960 Descending Indianapolis Center
09:15AM 39.8869 -79.8344 110° East 439 505 34,900 -960 Descending Washington Center
09:16AM 39.8403 -79.6775 111° Southeast 452 520 33,900 -1,680 Descending Washington Center
09:17AM 39.7933 -79.5236 112° Southeast 458 527 31,600 -2,340 Descending Washington Center
09:18AM 39.7500 -79.3781 111° Southeast 453 521 29,300 -2,280 Descending Washington Center
09:19AM 39.7067 -79.2328 111° Southeast 435 501 27,100 -2,160 Descending Washington Center
09:20AM 39.6650 -79.0958 112° Southeast 424 488 25,000 -1,080 Descending Washington Center
09:21AM 39.6353 -78.9597 106° East 411 473 25,000  Level Washington Center
09:22AM 39.5978 -78.8072 108° East 399 459 25,000 -300 Level Washington Center
09:23AM 39.5683 -78.6631 105° East 404 465 24,400 -1,560 Descending Washington Center
09:24AM 39.5364 -78.5219 106° East 404 465 21,900 -2,520 Descending Washington Center
09:25AM 39.5064 -78.3861 106° East 404 465 19,500 -2,400 Descending Washington Center
09:26AM 39.4758 -78.2533 107° East 399 459 17,100 -2,280 Descending Washington Center
09:27AM 39.4517 -78.1181 103° East 392 451 15,000 -1,080 Descending Washington Center
09:28AM 39.4503 -77.9861 91° East 373 429 15,000  Level Washington Center
09:29AM 39.4483 -77.8653 91° East 358 412 15,000  Level Washington Center
09:30AM 39.4461 -77.7739 92° East 344 396 15,100  Climbing Washington Center
09:31AM 39.4461 -77.6394 90° East 333 383 15,000 -960 Descending Washington Center
09:32AM 39.4461 -77.5211 90° East 333 383 13,300 -1,860 Descending Washington Center
09:33AM 39.4439 -77.4028 91° East 328 377 11,400 -1,200 Descending Washington Center
09:34AM 39.4500 -77.2833 86° East 320 368 11,000 -240 Descending Potomac TRACON
09:35AM 39.4667 -77.1500 81° East 329 379 11,000 -480 Level Potomac TRACON
09:36AM 39.4833 -77.0500 78° East 314 361 10,100 -1,380 Descending Potomac TRACON
09:37AM 39.4833 -76.9500 90° East 302 348 8,400 -1,560 Descending Potomac TRACON
09:38AM 39.4833 -76.8500 90° East 295 339 7,200 -1,500 Descending Potomac TRACON
09:39AM 39.4833 -76.7333 90° East 287 330 5,400 -1,560 Descending Potomac TRACON
09:40AM 39.4500 -76.6500 117° Southeast 268 308 4,000 -720 Descending Potomac TRACON
09:41AM 39.4167 -76.5667 117° Southeast 265 305 4,000  Level Potomac TRACON
09:42AM 39.3833 -76.5167 131° Southeast 231 266 4,000 -180 Level Potomac TRACON
09:43AM 39.3333 -76.4500 134° Southeast 228 262 3,700 -540 Descending Potomac TRACON
09:44AM 39.2833 -76.4333 166° South 209 241 3,000 -600 Descending Potomac TRACON
09:45AM 39.2333 -76.4167 166° South 177 204 2,500 -540 Descending Potomac TRACON
09:46AM 39.1833 -76.4333 194° South 168 193 2,000 -300 Descending Potomac TRACON
09:47AM 39.1667 -76.4667 237° Southwest 177 204 2,000  Level Potomac TRACON
09:48AM 39.1667 -76.5167 270° West 152 175 2,000 -300 Level Potomac TRACON
09:49AM 39.1667 -76.5667 270° West 132 152 1,400 -600 Descending Potomac TRACON
09:50AM 39.1667 -76.6167 270° West 128 147 800 -600 Descending Potomac TRACON